createdAt,value
2018-12-17T00:00:09.366Z,18.80
2018-12-17T00:01:09.468Z,17.80
2018-12-17T00:02:09.671Z,18.50
2018-12-17T00:03:09.865Z,18.30
2018-12-17T00:04:10.042Z,18.80
2018-12-17T00:05:10.225Z,18.80
2018-12-17T00:06:10.424Z,18.80
2018-12-17T00:07:10.659Z,18.80
2018-12-17T00:08:10.832Z,18.00
2018-12-17T00:09:10.883Z,18.50
2018-12-17T00:10:11.074Z,19.10
2018-12-17T00:11:11.253Z,18.20
2018-12-17T00:12:16.547Z,19.30
2018-12-17T00:13:11.545Z,18.20
2018-12-17T00:14:11.733Z,18.30
2018-12-17T00:15:11.930Z,18.10
2018-12-17T00:16:12.186Z,19.70
2018-12-17T00:17:12.242Z,18.60
2018-12-17T00:18:12.449Z,19.40
2018-12-17T00:19:12.626Z,19.50
2018-12-17T00:20:12.823Z,19.30
2018-12-17T00:21:13.018Z,18.40
2018-12-17T00:22:13.242Z,19.40
2018-12-17T00:23:13.336Z,19.20
2018-12-17T00:24:13.392Z,18.90
2018-12-17T00:25:13.489Z,18.40
2018-12-17T00:26:13.713Z,19.20
2018-12-17T00:27:13.902Z,18.80
2018-12-17T00:28:14.078Z,19.80
2018-12-17T00:29:14.279Z,19.00
2018-12-17T00:30:14.493Z,19.10
2018-12-17T00:31:14.574Z,18.80
2018-12-17T00:32:14.771Z,19.30
2018-12-17T00:33:14.962Z,19.10
2018-12-17T00:34:15.141Z,18.70
2018-12-17T00:35:15.400Z,19.50
2018-12-17T00:36:15.467Z,20.40
2018-12-17T00:37:15.651Z,19.80
2018-12-17T00:38:15.854Z,18.80
2018-12-17T00:39:16.032Z,19.00
2018-12-17T00:40:16.229Z,18.80
2018-12-17T00:41:16.318Z,19.20
2018-12-17T00:42:16.520Z,20.50
2018-12-17T00:43:16.735Z,18.90
2018-12-17T00:44:16.934Z,19.60
2018-12-17T00:45:17.222Z,18.80
2018-12-17T00:46:17.278Z,19.10
2018-12-17T00:47:17.478Z,19.20
2018-12-17T00:48:17.730Z,19.00
2018-12-17T00:49:17.811Z,18.90
2018-12-17T00:50:17.991Z,18.30
2018-12-17T00:51:18.205Z,20.70
2018-12-17T00:52:18.390Z,18.60
2018-12-17T00:53:18.573Z,18.70
2018-12-17T00:54:18.742Z,18.50
2018-12-17T00:55:18.921Z,19.80
2018-12-17T00:56:19.116Z,18.90
2018-12-17T00:57:19.295Z,18.40
2018-12-17T00:58:19.500Z,20.10
2018-12-17T00:59:19.673Z,20.70
2018-12-17T01:00:19.878Z,19.10
2018-12-17T01:01:20.110Z,19.40
2018-12-17T01:02:20.174Z,18.90
2018-12-17T01:03:20.446Z,19.40
2018-12-17T01:04:20.551Z,18.80
2018-12-17T01:05:20.633Z,18.70
2018-12-17T01:06:20.825Z,19.80
2018-12-17T01:07:21.028Z,18.30
2018-12-17T01:08:21.227Z,19.30
2018-12-17T01:09:21.476Z,17.90
2018-12-17T01:10:21.581Z,19.20
2018-12-17T01:11:21.644Z,20.30
2018-12-17T01:12:21.839Z,19.20
2018-12-17T01:13:22.068Z,19.30
2018-12-17T01:14:22.138Z,19.00
2018-12-17T01:15:22.319Z,19.50
2018-12-17T01:16:22.551Z,19.10
2018-12-17T01:17:22.614Z,19.00
2018-12-17T01:18:22.750Z,19.20
2018-12-17T01:19:22.974Z,18.80
2018-12-17T01:20:23.040Z,18.40
2018-12-17T01:21:23.257Z,19.40
2018-12-17T01:22:23.449Z,18.60
2018-12-17T01:23:23.679Z,18.60
2018-12-17T01:24:23.921Z,19.60
2018-12-17T01:25:23.995Z,18.90
2018-12-17T01:26:24.203Z,19.20
2018-12-17T01:27:24.379Z,18.10
2018-12-17T01:28:24.573Z,20.00
2018-12-17T01:29:24.803Z,18.40
2018-12-17T01:30:24.877Z,18.60
2018-12-17T01:31:29.520Z,19.20
2018-12-17T01:32:29.425Z,18.60
2018-12-17T01:33:25.518Z,18.50
2018-12-17T01:34:25.569Z,19.70
2018-12-17T01:35:25.774Z,19.70
2018-12-17T01:36:25.953Z,19.20
2018-12-17T01:37:26.215Z,20.30
2018-12-17T01:38:26.306Z,19.60
2018-12-17T01:39:26.404Z,19.40
2018-12-17T01:40:26.497Z,18.80
2018-12-17T01:41:26.709Z,18.90
2018-12-17T01:42:26.988Z,19.10
2018-12-17T01:43:27.069Z,19.80
2018-12-17T01:44:27.265Z,18.50
2018-12-17T01:45:27.459Z,18.00
2018-12-17T01:46:27.660Z,18.90
2018-12-17T01:47:27.868Z,18.70
2018-12-17T01:48:28.068Z,19.00
2018-12-17T01:49:28.200Z,18.50
2018-12-17T01:50:28.278Z,19.60
2018-12-17T01:51:28.554Z,18.40
2018-12-17T01:52:28.612Z,18.20
2018-12-17T01:53:28.787Z,19.00
2018-12-17T01:54:28.999Z,19.90
2018-12-17T01:55:29.181Z,18.60
2018-12-17T01:56:29.404Z,19.20
2018-12-17T01:57:29.473Z,18.50
2018-12-17T01:58:29.843Z,20.00
2018-12-17T01:59:29.794Z,19.10
2018-12-17T02:00:29.889Z,19.80
2018-12-17T02:01:30.068Z,19.20
2018-12-17T02:02:30.318Z,19.40
2018-12-17T02:03:30.371Z,19.10
2018-12-17T02:04:30.567Z,19.10
2018-12-17T02:05:30.886Z,18.80
2018-12-17T02:06:30.944Z,18.90
2018-12-17T02:07:31.145Z,19.50
2018-12-17T02:08:31.341Z,18.20
2018-12-17T02:09:31.454Z,18.80
2018-12-17T02:10:31.765Z,19.90
2018-12-17T02:11:31.855Z,18.70
2018-12-17T02:12:31.932Z,19.00
2018-12-17T02:13:32.110Z,18.20
2018-12-17T02:14:32.304Z,18.90
2018-12-17T02:15:32.608Z,19.10
2018-12-17T02:16:32.697Z,19.70
2018-12-17T02:17:32.899Z,18.90
2018-12-17T02:18:33.084Z,19.10
2018-12-17T02:19:33.293Z,20.10
2018-12-17T02:20:33.515Z,19.30
2018-12-17T02:21:33.597Z,18.30
2018-12-17T02:22:33.843Z,18.50
2018-12-17T02:23:33.926Z,19.70
2018-12-17T02:24:34.132Z,20.50
2018-12-17T02:25:34.323Z,19.50
2018-12-17T02:26:34.555Z,18.70
2018-12-17T02:27:34.641Z,20.10
2018-12-17T02:28:36.293Z,18.30
2018-12-17T02:29:34.886Z,18.30
2018-12-17T02:30:35.090Z,18.70
2018-12-17T02:31:35.282Z,18.30
2018-12-17T02:32:35.483Z,18.40
2018-12-17T02:33:35.674Z,18.90
2018-12-17T02:34:35.851Z,18.50
2018-12-17T02:35:36.033Z,18.10
2018-12-17T02:36:36.256Z,18.40
2018-12-17T02:37:36.449Z,19.30
2018-12-17T02:38:36.632Z,17.40
2018-12-17T02:39:36.876Z,19.10
2018-12-17T02:40:36.955Z,18.80
2018-12-17T02:41:37.168Z,18.70
2018-12-17T02:42:37.350Z,18.80
2018-12-17T02:43:37.565Z,19.20
2018-12-17T02:44:37.741Z,18.60
2018-12-17T02:45:37.925Z,18.70
2018-12-17T02:46:38.129Z,19.60
2018-12-17T02:47:38.310Z,18.30
2018-12-17T02:48:38.524Z,18.90
2018-12-17T02:49:38.764Z,19.30
2018-12-17T02:50:38.821Z,19.40
2018-12-17T02:51:39.043Z,19.20
2018-12-17T02:52:39.239Z,18.70
2018-12-17T02:53:39.450Z,19.20
2018-12-17T02:54:39.641Z,18.60
2018-12-17T02:55:39.959Z,19.10
2018-12-17T02:56:40.011Z,19.50
2018-12-17T02:57:40.197Z,18.50
2018-12-17T02:58:44.014Z,18.80
2018-12-17T02:59:40.623Z,17.90
2018-12-17T03:00:40.681Z,18.50
2018-12-17T03:01:40.910Z,20.20
2018-12-17T03:02:41.016Z,19.20
2018-12-17T03:03:41.210Z,18.30
2018-12-17T03:04:41.423Z,18.50
2018-12-17T03:05:41.632Z,19.30
2018-12-17T03:06:41.846Z,18.20
2018-12-17T03:07:42.028Z,18.90
2018-12-17T03:08:42.243Z,19.50
2018-12-17T03:09:42.444Z,18.30
2018-12-17T03:10:42.636Z,18.50
2018-12-17T03:11:42.847Z,18.10
2018-12-17T03:12:43.042Z,18.10
2018-12-17T03:13:43.225Z,19.10
2018-12-17T03:14:43.453Z,18.20
2018-12-17T03:15:43.537Z,18.80
2018-12-17T03:16:43.649Z,19.20
2018-12-17T03:17:43.717Z,18.50
2018-12-17T03:18:43.908Z,18.00
2018-12-17T03:19:44.101Z,19.50
2018-12-17T03:20:44.285Z,18.40
2018-12-17T03:21:44.482Z,18.20
2018-12-17T03:22:44.705Z,18.50
2018-12-17T03:23:44.774Z,18.00
2018-12-17T03:24:44.986Z,18.90
2018-12-17T03:25:45.170Z,18.30
2018-12-17T03:26:45.378Z,18.10
2018-12-17T03:27:45.527Z,18.70
2018-12-17T03:28:51.512Z,17.50
2018-12-17T03:29:45.801Z,18.40
2018-12-17T03:30:45.988Z,19.40
2018-12-17T03:31:46.199Z,18.50
2018-12-17T03:32:46.387Z,18.80
2018-12-17T03:33:46.669Z,18.60
2018-12-17T03:34:46.738Z,18.50
2018-12-17T03:35:46.949Z,19.00
2018-12-17T03:36:47.256Z,18.30
2018-12-17T03:37:47.314Z,19.00
2018-12-17T03:38:47.426Z,19.40
2018-12-17T03:39:47.668Z,19.40
2018-12-17T03:40:47.834Z,19.10
2018-12-17T03:41:47.893Z,19.40
2018-12-17T03:42:48.081Z,19.10
2018-12-17T03:43:48.321Z,19.10
2018-12-17T03:44:48.389Z,19.80
2018-12-17T03:45:48.593Z,17.90
2018-12-17T03:46:48.786Z,18.60
2018-12-17T03:47:48.965Z,17.10
2018-12-17T03:48:49.188Z,18.70
2018-12-17T03:49:49.415Z,18.30
2018-12-17T03:50:49.490Z,17.60
2018-12-17T03:51:49.628Z,18.20
2018-12-17T03:52:49.833Z,17.90
2018-12-17T03:53:49.969Z,17.90
2018-12-17T03:54:50.233Z,17.30
2018-12-17T03:55:50.365Z,17.00
2018-12-17T03:56:50.444Z,17.60
2018-12-17T03:57:50.637Z,17.20
2018-12-17T03:58:50.916Z,16.90
2018-12-17T03:59:50.987Z,17.50
2018-12-17T04:00:51.192Z,18.30
2018-12-17T04:01:51.403Z,16.80
2018-12-17T04:02:51.615Z,18.30
2018-12-17T04:03:51.806Z,17.10
2018-12-17T04:04:52.029Z,18.40
2018-12-17T04:05:52.147Z,17.40
2018-12-17T04:06:52.251Z,16.80
2018-12-17T04:07:52.430Z,18.00
2018-12-17T04:08:52.611Z,17.20
2018-12-17T04:09:52.797Z,17.10
2018-12-17T04:10:53.008Z,17.00
2018-12-17T04:11:53.109Z,17.40
2018-12-17T04:12:53.175Z,17.00
2018-12-17T04:13:53.398Z,16.80
2018-12-17T04:14:53.590Z,17.30
2018-12-17T04:15:53.796Z,16.90
2018-12-17T04:16:54.014Z,17.70
2018-12-17T04:17:54.201Z,18.30
2018-12-17T04:18:54.316Z,18.10
2018-12-17T04:19:54.526Z,18.00
2018-12-17T04:20:54.719Z,18.50
2018-12-17T04:21:54.919Z,17.80
2018-12-17T04:22:55.113Z,18.90
2018-12-17T04:23:55.337Z,18.20
2018-12-17T04:24:55.459Z,18.80
2018-12-17T04:25:55.747Z,18.10
2018-12-17T04:26:55.767Z,17.50
2018-12-17T04:27:55.928Z,18.30
2018-12-17T04:28:55.996Z,17.60
2018-12-17T04:29:56.204Z,17.80
2018-12-17T04:30:56.438Z,16.50
2018-12-17T04:31:56.522Z,17.40
2018-12-17T04:32:56.773Z,17.10
2018-12-17T04:33:56.907Z,17.60
2018-12-17T04:34:57.042Z,17.00
2018-12-17T04:35:57.111Z,16.60
2018-12-17T04:36:57.305Z,17.80
2018-12-17T04:37:57.507Z,17.40
2018-12-17T04:38:57.705Z,17.90
2018-12-17T04:39:57.800Z,18.50
2018-12-17T04:40:58.007Z,17.30
2018-12-17T04:41:58.153Z,18.50
2018-12-17T04:42:58.226Z,17.20
2018-12-17T04:43:58.517Z,16.90
2018-12-17T04:44:58.601Z,16.30
2018-12-17T04:45:58.866Z,16.40
2018-12-17T04:46:58.934Z,16.30
2018-12-17T04:47:59.126Z,17.60
2018-12-17T04:48:59.352Z,17.00
2018-12-17T04:49:59.433Z,17.10
2018-12-17T04:50:59.631Z,16.90
2018-12-17T04:51:59.824Z,16.80
2018-12-17T04:53:00.038Z,17.10
2018-12-17T04:54:00.212Z,17.90
2018-12-17T04:55:00.418Z,17.10
2018-12-17T04:56:00.648Z,17.00
2018-12-17T04:57:00.735Z,16.30
2018-12-17T04:58:00.934Z,16.90
2018-12-17T04:59:01.155Z,17.10
2018-12-17T05:00:01.397Z,15.90
2018-12-17T05:01:01.492Z,16.10
2018-12-17T05:02:01.690Z,16.80
2018-12-17T05:03:01.833Z,16.80
2018-12-17T05:04:01.924Z,15.80
2018-12-17T05:05:02.133Z,17.10
2018-12-17T05:06:02.312Z,15.90
2018-12-17T05:07:02.519Z,15.30
2018-12-17T05:08:02.727Z,16.50
2018-12-17T05:09:02.963Z,16.60
2018-12-17T05:10:03.045Z,16.40
2018-12-17T05:11:03.252Z,15.80
2018-12-17T05:12:03.460Z,16.10
2018-12-17T05:13:03.628Z,15.50
2018-12-17T05:14:03.800Z,16.70
2018-12-17T05:15:04.071Z,17.20
2018-12-17T05:16:04.122Z,17.00
2018-12-17T05:17:04.317Z,17.20
2018-12-17T05:18:04.513Z,17.30
2018-12-17T05:19:04.704Z,17.00
2018-12-17T05:20:04.905Z,17.10
2018-12-17T05:21:05.083Z,16.30
2018-12-17T05:22:05.263Z,15.80
2018-12-17T05:23:05.458Z,16.20
2018-12-17T05:24:05.631Z,15.80
2018-12-17T05:25:05.831Z,15.80
2018-12-17T05:26:06.018Z,16.70
2018-12-17T05:27:06.267Z,16.30
2018-12-17T05:28:06.366Z,16.40
2018-12-17T05:29:06.458Z,16.00
2018-12-17T05:30:06.626Z,16.20
2018-12-17T05:31:06.810Z,16.20
2018-12-17T05:32:07.009Z,16.50
2018-12-17T05:33:07.224Z,16.30
2018-12-17T05:34:07.324Z,16.80
2018-12-17T05:35:07.521Z,17.10
2018-12-17T05:36:07.701Z,15.70
2018-12-17T05:37:07.912Z,17.90
2018-12-17T05:38:08.100Z,16.10
2018-12-17T05:39:08.291Z,17.50
2018-12-17T05:40:08.465Z,16.60
2018-12-17T05:41:08.693Z,16.60
2018-12-17T05:42:08.896Z,18.40
2018-12-17T05:43:09.001Z,17.70
2018-12-17T05:44:09.187Z,17.20
2018-12-17T05:45:09.440Z,16.90
2018-12-17T05:46:09.520Z,17.30
2018-12-17T05:47:09.753Z,16.80
2018-12-17T05:48:09.930Z,17.10
2018-12-17T05:49:10.149Z,17.50
2018-12-17T05:50:10.351Z,17.90
2018-12-17T05:51:10.531Z,16.40
2018-12-17T05:52:10.741Z,17.40
2018-12-17T05:53:10.947Z,17.10
2018-12-17T05:54:11.135Z,17.00
2018-12-17T05:55:11.329Z,16.90
2018-12-17T05:56:11.557Z,16.80
2018-12-17T05:57:13.598Z,18.00
2018-12-17T05:58:13.699Z,16.50
2018-12-17T05:59:17.103Z,16.70
2018-12-17T06:00:13.390Z,16.70
2018-12-17T06:01:15.777Z,16.10
2018-12-17T06:02:16.492Z,15.60
2018-12-17T06:03:15.419Z,16.70
2018-12-17T06:04:15.818Z,16.30
2018-12-17T06:05:15.782Z,17.10
2018-12-17T06:06:18.198Z,17.30
2018-12-17T06:07:16.997Z,16.30
2018-12-17T06:08:17.856Z,17.50
2018-12-17T06:09:18.202Z,16.40
2018-12-17T06:10:15.296Z,16.40
2018-12-17T06:11:17.682Z,16.60
2018-12-17T06:12:17.483Z,17.10
2018-12-17T06:13:16.745Z,16.30
2018-12-17T06:14:18.077Z,17.10
2018-12-17T06:15:17.576Z,15.40
2018-12-17T06:16:17.189Z,15.50
2018-12-17T06:17:17.293Z,15.50
2018-12-17T06:18:17.758Z,16.50
2018-12-17T06:19:18.250Z,15.10
2018-12-17T06:20:19.076Z,15.70
2018-12-17T06:21:19.316Z,15.40
2018-12-17T06:22:19.801Z,15.60
2018-12-17T06:23:15.826Z,16.40
2018-12-17T06:24:16.020Z,15.70
2018-12-17T06:25:16.224Z,17.60
2018-12-17T06:26:16.427Z,16.10
2018-12-17T06:27:16.623Z,16.10
2018-12-17T06:28:16.954Z,17.00
2018-12-17T06:29:17.028Z,16.80
2018-12-17T06:30:17.111Z,17.50
2018-12-17T06:31:17.300Z,18.50
2018-12-17T06:32:17.518Z,17.30
2018-12-17T06:33:17.723Z,17.30
2018-12-17T06:34:17.932Z,17.50
2018-12-17T06:35:18.141Z,16.90
2018-12-17T06:36:18.323Z,17.10
2018-12-17T06:37:18.570Z,16.80
2018-12-17T06:38:18.638Z,16.40
2018-12-17T06:39:18.902Z,16.40
2018-12-17T06:40:19.033Z,16.70
2018-12-17T06:41:19.127Z,17.60
2018-12-17T06:42:19.287Z,16.10
2018-12-17T06:43:19.415Z,15.60
2018-12-17T06:44:19.536Z,15.90
2018-12-17T06:45:19.605Z,16.20
2018-12-17T06:46:19.806Z,15.80
2018-12-17T06:47:19.995Z,15.70
2018-12-17T06:48:20.241Z,15.70
2018-12-17T06:49:20.337Z,15.90
2018-12-17T06:50:20.429Z,15.40
2018-12-17T06:51:20.653Z,15.60
2018-12-17T06:52:21.586Z,15.80
2018-12-17T06:53:21.190Z,14.90
2018-12-17T06:54:20.981Z,15.70
2018-12-17T06:55:21.185Z,15.80
2018-12-17T06:56:21.465Z,16.30
2018-12-17T06:57:21.728Z,15.20
2018-12-17T06:58:21.730Z,16.30
2018-12-17T06:59:21.951Z,16.10
2018-12-17T07:00:22.044Z,15.90
2018-12-17T07:01:22.172Z,16.10
2018-12-17T07:02:22.407Z,16.20
2018-12-17T07:03:22.597Z,16.30
2018-12-17T07:04:22.707Z,17.30
2018-12-17T07:05:26.528Z,16.70
2018-12-17T07:06:23.047Z,17.30
2018-12-17T07:07:23.149Z,15.60
2018-12-17T07:08:23.315Z,15.50
2018-12-17T07:09:23.373Z,15.20
2018-12-17T07:10:23.525Z,15.70
2018-12-17T07:11:23.617Z,15.80
2018-12-17T07:12:23.735Z,15.70
2018-12-17T07:13:23.846Z,15.70
2018-12-17T07:14:23.938Z,15.90
2018-12-17T07:15:24.116Z,15.50
2018-12-17T07:16:24.352Z,15.00
2018-12-17T07:17:24.512Z,14.60
2018-12-17T07:18:24.713Z,14.50
2018-12-17T07:19:24.757Z,15.00
2018-12-17T07:20:24.974Z,14.30
2018-12-17T07:21:25.186Z,14.00
2018-12-17T07:22:25.609Z,13.60
2018-12-17T07:23:25.666Z,12.90
2018-12-17T07:24:25.653Z,13.00
2018-12-17T07:25:25.906Z,13.80
2018-12-17T07:26:26.124Z,13.90
2018-12-17T07:27:26.271Z,13.40
2018-12-17T07:28:26.732Z,13.20
2018-12-17T07:29:27.913Z,13.30
2018-12-17T07:30:26.506Z,13.80
2018-12-17T07:31:26.655Z,13.20
2018-12-17T07:32:27.044Z,13.00
2018-12-17T07:33:27.000Z,13.50
2018-12-17T07:34:27.150Z,13.70
2018-12-17T07:35:27.253Z,14.00
2018-12-17T07:36:27.445Z,13.50
2018-12-17T07:37:27.650Z,13.70
2018-12-17T07:38:27.781Z,12.90
2018-12-17T07:39:28.034Z,12.60
2018-12-17T07:40:28.130Z,13.50
2018-12-17T07:41:28.347Z,12.90
2018-12-17T07:42:28.333Z,12.80
2018-12-17T07:43:28.453Z,12.80
2018-12-17T07:44:28.746Z,12.90
2018-12-17T07:45:28.847Z,13.40
2018-12-17T07:46:29.000Z,12.70
2018-12-17T07:47:29.092Z,13.30
2018-12-17T07:48:29.465Z,13.50
2018-12-17T07:49:29.437Z,13.50
2018-12-17T07:50:29.672Z,13.80
2018-12-17T07:51:29.763Z,13.40
2018-12-17T07:52:29.878Z,13.70
2018-12-17T07:53:30.049Z,13.60
2018-12-17T07:54:30.649Z,13.00
2018-12-17T07:55:30.273Z,12.70
2018-12-17T07:56:31.835Z,12.70
2018-12-17T07:57:30.658Z,13.60
2018-12-17T07:58:30.735Z,12.50
2018-12-17T07:59:31.457Z,12.40
2018-12-17T08:00:32.257Z,12.60
2018-12-17T08:01:32.344Z,12.10
2018-12-17T08:02:32.259Z,12.90
2018-12-17T08:03:33.053Z,12.20
2018-12-17T08:04:34.441Z,12.10
2018-12-17T08:05:33.027Z,12.60
2018-12-17T08:06:32.635Z,12.60
2018-12-17T08:07:33.440Z,12.10
2018-12-17T08:08:35.486Z,11.80
2018-12-17T08:09:33.706Z,12.10
2018-12-17T08:10:33.719Z,12.40
2018-12-17T08:11:33.443Z,12.60
2018-12-17T08:12:34.230Z,12.30
2018-12-17T08:13:34.242Z,11.70
2018-12-17T08:14:34.071Z,12.30
2018-12-17T08:15:33.938Z,11.50
2018-12-17T08:16:35.387Z,11.70
2018-12-17T08:17:34.929Z,12.10
2018-12-17T08:18:35.681Z,11.20
2018-12-17T08:19:35.726Z,12.10
2018-12-17T08:20:35.037Z,11.40
2018-12-17T08:21:34.466Z,12.00
2018-12-17T08:22:37.093Z,11.40
2018-12-17T08:23:37.085Z,12.20
2018-12-17T08:24:36.346Z,12.00
2018-12-17T08:25:35.922Z,13.00
2018-12-17T08:26:35.050Z,11.50
2018-12-17T08:27:35.087Z,11.70
2018-12-17T08:28:35.364Z,12.40
2018-12-17T08:29:35.423Z,11.30
2018-12-17T08:30:35.675Z,12.50
2018-12-17T08:31:35.739Z,12.30
2018-12-17T08:32:36.170Z,12.30
2018-12-17T08:33:36.602Z,11.50
2018-12-17T08:34:37.801Z,12.60
2018-12-17T08:35:37.531Z,12.80
2018-12-17T08:36:37.128Z,11.80
2018-12-17T08:37:37.808Z,11.80
2018-12-17T08:38:37.837Z,11.70
2018-12-17T08:39:37.660Z,12.00
2018-12-17T08:40:39.260Z,12.40
2018-12-17T08:41:38.377Z,11.80
2018-12-17T08:42:38.295Z,11.60
2018-12-17T08:43:38.404Z,11.50
2018-12-17T08:44:39.196Z,11.30
2018-12-17T08:45:39.119Z,11.00
2018-12-17T08:46:40.263Z,11.10
2018-12-17T08:47:40.223Z,10.80
2018-12-17T08:48:40.348Z,11.80
2018-12-17T08:49:42.319Z,11.90
2018-12-17T08:50:40.478Z,11.60
2018-12-17T08:51:41.023Z,11.50
2018-12-17T08:52:40.078Z,11.20
2018-12-17T08:53:40.480Z,11.60
2018-12-17T08:54:40.448Z,11.30
2018-12-17T08:55:41.187Z,11.10
2018-12-17T08:56:40.840Z,10.90
2018-12-17T08:57:41.015Z,11.00
2018-12-17T08:58:41.030Z,10.70
2018-12-17T08:59:43.355Z,10.90
2018-12-17T09:00:41.968Z,11.70
2018-12-17T09:01:41.833Z,11.30
2018-12-17T09:02:42.925Z,10.90
2018-12-17T09:03:42.431Z,10.50
2018-12-17T09:04:41.334Z,11.30
2018-12-17T09:05:43.174Z,10.50
2018-12-17T09:06:42.393Z,11.00
2018-12-17T09:07:42.416Z,10.60
2018-12-17T09:08:43.809Z,9.90
2018-12-17T09:09:42.551Z,11.00
2018-12-17T09:10:43.362Z,10.40
2018-12-17T09:11:42.880Z,10.90
2018-12-17T09:12:43.756Z,10.70
2018-12-17T09:13:43.683Z,10.80
2018-12-17T09:14:43.655Z,10.40
2018-12-17T09:15:44.126Z,11.20
2018-12-17T09:16:44.969Z,10.90
2018-12-17T09:17:44.403Z,10.90
2018-12-17T09:18:46.866Z,11.00
2018-12-17T09:19:43.999Z,11.40
2018-12-17T09:20:45.396Z,10.80
2018-12-17T09:21:46.381Z,10.10
2018-12-17T09:22:46.269Z,10.50
2018-12-17T09:23:47.135Z,11.80
2018-12-17T09:24:46.135Z,11.20
2018-12-17T09:25:44.358Z,11.50
2018-12-17T09:26:44.225Z,10.90
2018-12-17T09:27:44.391Z,10.60
2018-12-17T09:28:44.591Z,11.00
2018-12-17T09:29:44.769Z,11.40
2018-12-17T09:30:44.919Z,10.60
2018-12-17T09:31:45.076Z,10.30
2018-12-17T09:32:45.278Z,10.50
2018-12-17T09:33:45.411Z,10.70
2018-12-17T09:34:45.620Z,10.50
2018-12-17T09:35:45.802Z,11.00
2018-12-17T09:36:45.971Z,10.70
2018-12-17T09:37:46.138Z,10.60
2018-12-17T09:38:46.327Z,10.50
2018-12-17T09:39:46.522Z,11.30
2018-12-17T09:40:46.650Z,10.80
2018-12-17T09:41:47.142Z,10.20
2018-12-17T09:42:46.950Z,10.50
2018-12-17T09:43:47.412Z,10.70
2018-12-17T09:44:47.224Z,10.70
2018-12-17T09:45:47.647Z,11.30
2018-12-17T09:46:47.806Z,10.90
2018-12-17T09:47:48.676Z,11.10
2018-12-17T09:48:48.263Z,11.10
2018-12-17T09:49:48.583Z,10.50
2018-12-17T09:50:48.735Z,10.50
2018-12-17T09:51:48.617Z,10.80
2018-12-17T09:52:48.658Z,10.10
2018-12-17T09:53:48.969Z,10.70
2018-12-17T09:54:49.002Z,10.80
2018-12-17T09:55:49.295Z,11.50
2018-12-17T09:56:49.268Z,10.10
2018-12-17T09:57:49.508Z,9.70
2018-12-17T09:58:49.542Z,11.20
2018-12-17T09:59:49.693Z,10.60
2018-12-17T10:00:49.872Z,10.40
2018-12-17T10:01:50.028Z,10.60
2018-12-17T10:02:50.177Z,10.20
2018-12-17T10:03:50.343Z,10.70
2018-12-17T10:04:50.496Z,10.00
2018-12-17T10:05:50.702Z,10.40
2018-12-17T10:06:50.890Z,10.30
2018-12-17T10:07:51.054Z,10.30
2018-12-17T10:08:51.221Z,10.00
2018-12-17T10:09:51.387Z,11.70
2018-12-17T10:10:51.690Z,11.60
2018-12-17T10:11:51.735Z,11.40
2018-12-17T10:12:51.897Z,10.90
2018-12-17T10:13:52.066Z,10.50
2018-12-17T10:14:52.230Z,10.50
2018-12-17T10:15:52.410Z,11.20
2018-12-17T10:16:52.561Z,10.40
2018-12-17T10:17:52.742Z,10.60
2018-12-17T10:18:52.916Z,10.40
2018-12-17T10:19:53.074Z,10.20
2018-12-17T10:20:53.227Z,9.50
2018-12-17T10:21:53.513Z,10.40
2018-12-17T10:22:55.488Z,10.70
2018-12-17T10:23:53.710Z,9.80
2018-12-17T10:24:53.895Z,10.50
2018-12-17T10:25:54.090Z,9.60
2018-12-17T10:26:55.814Z,9.60
2018-12-17T10:27:58.119Z,10.80
2018-12-17T10:28:56.184Z,11.00
2018-12-17T10:29:55.128Z,9.90
2018-12-17T10:30:56.580Z,10.40
2018-12-17T10:31:55.002Z,10.30
2018-12-17T10:32:55.176Z,9.60
2018-12-17T10:33:55.813Z,11.20
2018-12-17T10:34:55.614Z,11.60
2018-12-17T10:35:55.649Z,11.60
2018-12-17T10:36:55.841Z,11.50
2018-12-17T10:37:56.006Z,10.90
2018-12-17T10:38:56.199Z,10.60
2018-12-17T10:39:56.363Z,10.50
2018-12-17T10:40:56.534Z,11.00
2018-12-17T10:41:56.773Z,11.50
2018-12-17T10:42:56.872Z,11.00
2018-12-17T10:43:57.031Z,11.80
2018-12-17T10:44:57.205Z,12.00
2018-12-17T10:45:57.391Z,11.70
2018-12-17T10:46:57.556Z,11.60
2018-12-17T10:47:57.719Z,11.30
2018-12-17T10:48:57.879Z,12.10
2018-12-17T10:49:58.089Z,12.50
2018-12-17T10:50:58.249Z,12.60
2018-12-17T10:51:58.423Z,11.80
2018-12-17T10:52:58.585Z,12.40
2018-12-17T10:53:58.821Z,12.60
2018-12-17T10:54:58.906Z,12.50
2018-12-17T10:55:59.082Z,12.90
2018-12-17T10:56:59.254Z,13.10
2018-12-17T10:57:59.477Z,12.90
2018-12-17T10:58:59.532Z,12.60
2018-12-17T10:59:59.808Z,12.10
2018-12-17T11:00:59.896Z,10.30
2018-12-17T11:02:00.052Z,11.20
2018-12-17T11:03:00.221Z,11.00
2018-12-17T11:04:00.366Z,11.10
2018-12-17T11:05:00.552Z,11.30
2018-12-17T11:06:00.694Z,11.20
2018-12-17T11:07:00.900Z,11.70
2018-12-17T11:08:01.072Z,12.20
2018-12-17T11:09:02.323Z,11.70
2018-12-17T11:10:01.563Z,11.90
2018-12-17T11:11:01.833Z,13.10
2018-12-17T11:12:01.650Z,12.30
2018-12-17T11:13:01.824Z,12.40
2018-12-17T11:14:01.997Z,11.60
2018-12-17T11:15:02.171Z,11.10
2018-12-17T11:16:02.321Z,10.70
2018-12-17T11:17:02.500Z,11.80
2018-12-17T11:18:02.662Z,12.20
2018-12-17T11:19:02.826Z,11.30
2018-12-17T11:20:02.992Z,11.30
2018-12-17T11:21:03.149Z,12.10
2018-12-17T11:22:04.450Z,12.90
2018-12-17T11:23:03.751Z,11.60
2018-12-17T11:24:03.684Z,11.20
2018-12-17T11:25:03.837Z,11.00
2018-12-17T11:26:04.012Z,10.70
2018-12-17T11:27:04.187Z,10.80
2018-12-17T11:28:04.384Z,9.50
2018-12-17T11:29:04.547Z,9.30
2018-12-17T11:30:04.711Z,8.90
2018-12-17T11:31:04.880Z,9.30
2018-12-17T11:32:11.452Z,9.40
2018-12-17T11:33:05.244Z,8.40
2018-12-17T11:34:05.407Z,8.10
2018-12-17T11:35:05.586Z,7.90
2018-12-17T11:36:05.751Z,7.60
2018-12-17T11:37:06.090Z,7.40
2018-12-17T11:38:06.146Z,7.70
2018-12-17T11:39:06.480Z,7.30
2018-12-17T11:40:06.444Z,7.80
2018-12-17T11:41:06.641Z,8.10
2018-12-17T11:42:06.818Z,8.20
2018-12-17T11:43:08.908Z,7.80
2018-12-17T11:44:07.132Z,7.90
2018-12-17T11:45:07.327Z,8.30
2018-12-17T11:46:07.475Z,7.90
2018-12-17T11:47:07.662Z,8.00
2018-12-17T11:48:07.822Z,7.50
2018-12-17T11:49:07.995Z,7.00
2018-12-17T11:50:08.399Z,8.00
2018-12-17T11:51:08.339Z,7.50
2018-12-17T11:52:08.526Z,7.70
2018-12-17T11:53:08.616Z,8.00
2018-12-17T11:54:08.784Z,8.30
2018-12-17T11:55:08.981Z,8.10
2018-12-17T11:56:09.119Z,7.80
2018-12-17T11:57:09.284Z,7.70
2018-12-17T11:58:09.472Z,8.50
2018-12-17T11:59:09.647Z,7.60
2018-12-17T12:00:09.817Z,7.90
2018-12-17T12:01:10.306Z,7.90
2018-12-17T12:02:10.288Z,8.50
2018-12-17T12:03:10.452Z,7.30
2018-12-17T12:04:10.422Z,7.80
2018-12-17T12:05:10.604Z,8.10
2018-12-17T12:06:14.152Z,8.10
2018-12-17T12:07:10.934Z,7.70
2018-12-17T12:08:11.098Z,7.90
2018-12-17T12:09:11.264Z,7.50
2018-12-17T12:10:11.431Z,8.00
2018-12-17T12:11:11.596Z,8.30
2018-12-17T12:12:11.772Z,7.20
2018-12-17T12:13:11.919Z,7.00
2018-12-17T12:14:12.090Z,7.90
2018-12-17T12:15:12.248Z,8.10
2018-12-17T12:16:12.411Z,7.40
2018-12-17T12:17:12.579Z,6.90
2018-12-17T12:18:12.748Z,8.40
2018-12-17T12:19:12.928Z,7.50
2018-12-17T12:20:13.290Z,8.50
2018-12-17T12:21:13.265Z,7.30
2018-12-17T12:22:13.430Z,11.20
2018-12-17T12:23:13.591Z,12.80
2018-12-17T12:24:13.802Z,11.60
2018-12-17T12:25:13.974Z,13.00
2018-12-17T12:26:14.139Z,15.30
2018-12-17T12:27:14.306Z,13.40
2018-12-17T12:28:14.469Z,12.30
2018-12-17T12:29:14.623Z,19.80
2018-12-17T12:30:14.796Z,18.60
2018-12-17T12:31:15.010Z,16.90
2018-12-17T12:32:15.172Z,13.80
2018-12-17T12:33:15.430Z,9.30
2018-12-17T12:34:15.645Z,9.30
2018-12-17T12:35:15.819Z,8.90
2018-12-17T12:36:16.244Z,7.90
2018-12-17T12:37:16.730Z,8.00
2018-12-17T12:38:16.390Z,7.60
2018-12-17T12:39:16.377Z,7.70
2018-12-17T12:40:16.555Z,7.40
2018-12-17T12:41:16.776Z,7.50
2018-12-17T12:42:16.860Z,8.40
2018-12-17T12:43:17.025Z,8.00
2018-12-17T12:44:17.227Z,8.20
2018-12-17T12:45:17.521Z,7.80
2018-12-17T12:46:17.563Z,7.20
2018-12-17T12:47:17.758Z,7.70
2018-12-17T12:48:17.919Z,8.70
2018-12-17T12:49:18.476Z,9.00
2018-12-17T12:50:18.609Z,7.90
2018-12-17T12:51:18.480Z,8.10
2018-12-17T12:52:18.907Z,8.50
2018-12-17T12:53:19.280Z,8.50
2018-12-17T12:54:19.122Z,8.50
2018-12-17T12:55:19.513Z,8.60
2018-12-17T12:56:19.350Z,8.00
2018-12-17T12:57:19.505Z,8.30